Time,TemperatureF,DewpointF,PressureIn,WindDirection,WindDirectionDegrees,WindSpeedMPH,WindSpeedGustMPH,Humidity,HourlyPrecipIn,Conditions,Clouds,dailyrainin,SoftwareType,DateUTC
2013-08-24 00:01:00,57.8,51.7,30.13,East,82,0.0,0.0,80,0.00,CLR,OVC,0.00,WeatherDisplay:10.37,2013-08-24 04:01:00,
2013-08-24 00:06:00,57.8,51.7,30.14,East,83,0.0,0.0,80,0.00,CLR,OVC,0.00,WeatherDisplay:10.37,2013-08-24 04:06:00,
2013-08-24 00:11:00,57.4,51.6,30.14,East,82,0.0,0.0,81,0.00,CLR,OVC,0.00,WeatherDisplay:10.37,2013-08-24 04:11:00,
2013-08-24 00:16:00,57.7,51.9,30.15,East,81,0.0,0.0,81,0.00,CLR,OVC,0.00,WeatherDisplay:10.37,2013-08-24 04:16:00,
2013-08-24 00:21:00,57.3,51.2,30.15,East,82,0.0,0.0,80,0.00,CLR,OVC,0.00,WeatherDisplay:10.37,2013-08-24 04:21:00,
2013-08-24 00:26:00,57.2,51.4,30.15,East,82,0.0,0.0,81,0.00,CLR,OVC,0.00,WeatherDisplay:10.37,2013-08-24 04:26:00,
2013-08-24 00:31:00,57.1,51.0,30.15,East,81,0.0,0.0,80,0.00,CLR,OVC,0.00,WeatherDisplay:10.37,2013-08-24 04:31:00,
2013-08-24 00:36:00,57.3,51.5,30.16,East,82,0.0,0.0,81,0.00,CLR,OVC,0.00,WeatherDisplay:10.37,2013-08-24 04:36:00,
2013-08-24 00:41:00,56.7,50.9,30.15,East,82,0.0,0.0,81,0.00,CLR,OVC,0.00,WeatherDisplay:10.37,2013-08-24 04:41:00,
2013-08-24 00:46:00,56.7,50.9,30.16,East,83,0.0,0.0,81,0.00,CLR,OVC,0.00,WeatherDisplay:10.37,2013-08-24 04:46:00,
2013-08-24 00:51:00,56.7,51.3,30.16,East,82,0.0,0.0,82,0.00,CLR,OVC,0.00,WeatherDisplay:10.37,2013-08-24 04:51:00,
2013-08-24 00:56:00,56.2,50.8,30.16,East,82,0.0,0.0,82,0.00,CLR,OVC,0.00,WeatherDisplay:10.37,2013-08-24 04:56:00,
2013-08-24 01:01:00,56.4,50.6,30.16,East,81,0.0,0.0,81,0.00,CLR,OVC,0.00,WeatherDisplay:10.37,2013-08-24 05:01:00,
2013-08-24 01:06:00,56.5,51.1,30.16,East,82,0.0,0.0,82,0.00,CLR,OVC,0.00,WeatherDisplay:10.37,2013-08-24 05:06:00,
2013-08-24 01:11:00,55.8,50.7,30.16,East,81,0.0,0.0,83,0.00,CLR,OVC,0.00,WeatherDisplay:10.37,2013-08-24 05:11:00,
2013-08-24 01:16:00,56.0,50.6,30.17,East,81,0.0,0.0,82,0.00,CLR,OVC,0.00,WeatherDisplay:10.37,2013-08-24 05:16:00,
2013-08-24 01:21:00,55.9,50.5,30.17,East,83,0.0,0.0,82,0.00,CLR,OVC,0.00,WeatherDisplay:10.37,2013-08-24 05:21:00,
2013-08-24 01:26:00,55.7,50.9,30.17,East,82,0.0,0.0,84,0.00,CLR,OVC,0.00,WeatherDisplay:10.37,2013-08-24 05:26:00,
2013-08-24 01:31:00,55.5,51.4,30.17,East,82,0.0,0.0,86,0.00,CLR,OVC,0.00,WeatherDisplay:10.37,2013-08-24 05:31:00,
2013-08-24 01:36:00,55.4,51.3,30.16,East,83,0.0,0.0,86,0.00,CLR,OVC,0.00,WeatherDisplay:10.37,2013-08-24 05:36:00,
2013-08-24 01:41:00,55.1,51.0,30.17,East,82,0.0,0.0,86,0.00,CLR,OVC,0.00,WeatherDisplay:10.37,2013-08-24 05:41:00,
2013-08-24 01:46:00,55.1,50.0,30.17,East,82,0.0,0.0,83,0.00,CLR,OVC,0.00,WeatherDisplay:10.37,2013-08-24 05:46:00,
2013-08-24 01:52:00,54.7,49.6,30.17,East,81,0.0,0.0,83,0.00,CLR,OVC,0.00,WeatherDisplay:10.37,2013-08-24 05:52:00,
2013-08-24 01:57:00,55.2,49.8,30.17,East,81,0.0,0.0,82,0.00,CLR,OVC,0.00,WeatherDisplay:10.37,2013-08-24 05:57:00,
2013-08-24 02:02:00,54.8,49.4,30.17,East,82,0.0,0.0,82,0.00,CLR,OVC,0.00,WeatherDisplay:10.37,2013-08-24 06:02:00,
2013-08-24 02:07:00,54.7,49.3,30.17,East,82,0.0,0.0,82,0.00,CLR,OVC,0.00,WeatherDisplay:10.37,2013-08-24 06:07:00,
2013-08-24 02:12:00,54.6,49.2,30.17,East,82,0.0,0.0,82,0.00,CLR,OVC,0.00,WeatherDisplay:10.37,2013-08-24 06:12:00,
2013-08-24 02:17:00,54.7,49.0,30.17,East,82,0.0,0.0,81,0.00,CLR,OVC,0.00,WeatherDisplay:10.37,2013-08-24 06:17:00,
2013-08-24 02:22:00,54.7,49.0,30.17,East,82,0.0,0.0,81,0.00,CLR,OVC,0.00,WeatherDisplay:10.37,2013-08-24 06:22:00,
2013-08-24 02:27:00,54.3,48.9,30.17,East,81,0.0,0.0,82,0.00,CLR,OVC,0.00,WeatherDisplay:10.37,2013-08-24 06:27:00,
2013-08-24 02:32:00,54.0,48.6,30.17,East,82,0.0,0.0,82,0.00,CLR,OVC,0.00,WeatherDisplay:10.37,2013-08-24 06:32:00,
2013-08-24 02:37:00,53.9,48.5,30.17,East,80,0.0,0.0,82,0.00,CLR,OVC,0.00,WeatherDisplay:10.37,2013-08-24 06:37:00,
2013-08-24 02:42:00,53.8,48.4,30.18,East,82,0.0,0.0,82,0.00,CLR,OVC,0.00,WeatherDisplay:10.37,2013-08-24 06:42:00,
2013-08-24 02:47:00,53.7,48.3,30.18,East,82,0.0,0.0,82,0.00,CLR,OVC,0.00,WeatherDisplay:10.37,2013-08-24 06:47:00,
2013-08-24 02:52:00,53.8,48.4,30.18,East,82,0.0,0.0,82,0.00,CLR,OVC,0.00,WeatherDisplay:10.37,2013-08-24 06:52:00,
2013-08-24 02:57:00,53.5,48.1,30.18,East,82,0.0,0.0,82,0.00,CLR,OVC,0.00,WeatherDisplay:10.37,2013-08-24 06:57:00,
2013-08-24 03:02:00,53.6,48.2,30.18,East,83,0.0,0.0,82,0.00,CLR,OVC,0.00,WeatherDisplay:10.37,2013-08-24 07:02:00,
2013-08-24 03:07:00,53.3,47.9,30.18,East,81,0.0,0.0,82,0.00,CLR,OVC,0.00,WeatherDisplay:10.37,2013-08-24 07:07:00,
2013-08-24 03:12:00,53.0,47.7,30.19,East,83,0.0,0.0,82,0.00,CLR,OVC,0.00,WeatherDisplay:10.37,2013-08-24 07:12:00,
2013-08-24 03:17:00,52.7,47.4,30.19,East,81,0.0,0.0,82,0.00,CLR,OVC,0.00,WeatherDisplay:10.37,2013-08-24 07:17:00,
2013-08-24 03:22:00,53.4,48.4,30.19,East,82,0.0,0.0,83,0.00,CLR,OVC,0.00,WeatherDisplay:10.37,2013-08-24 07:22:00,
2013-08-24 03:27:00,53.0,48.0,30.18,East,82,0.0,0.0,83,0.00,CLR,OVC,0.00,WeatherDisplay:10.37,2013-08-24 07:27:00,
2013-08-24 03:32:00,52.8,48.1,30.19,East,82,0.0,0.0,84,0.00,CLR,OVC,0.00,WeatherDisplay:10.37,2013-08-24 07:32:00,
2013-08-24 03:37:00,52.6,48.2,30.19,East,83,0.0,0.0,85,0.00,CLR,OVC,0.00,WeatherDisplay:10.37,2013-08-24 07:37:00,
2013-08-24 03:42:00,52.8,48.4,30.19,East,82,0.0,0.0,85,0.00,CLR,OVC,0.00,WeatherDisplay:10.37,2013-08-24 07:42:00,
2013-08-24 03:47:00,52.3,47.9,30.19,East,80,0.0,0.0,85,0.00,CLR,OVC,0.00,WeatherDisplay:10.37,2013-08-24 07:47:00,
2013-08-24 03:52:00,52.7,48.3,30.19,East,83,0.0,0.0,85,0.00,CLR,OVC,0.00,WeatherDisplay:10.37,2013-08-24 07:52:00,
2013-08-24 03:58:00,52.6,48.5,30.20,East,82,0.0,0.0,86,0.00,CLR,OVC,0.00,WeatherDisplay:10.37,2013-08-24 07:58:00,
2013-08-24 04:03:00,52.4,48.3,30.20,East,81,0.0,0.0,86,0.00,CLR,OVC,0.00,WeatherDisplay:10.37,2013-08-24 08:03:00,
2013-08-24 04:08:00,52.1,48.0,30.20,East,81,0.0,0.0,86,0.00,CLR,OVC,0.00,WeatherDisplay:10.37,2013-08-24 08:08:00,
2013-08-24 04:13:00,52.2,48.4,30.20,East,82,0.0,0.0,87,0.00,CLR,OVC,0.00,WeatherDisplay:10.37,2013-08-24 08:13:00,
2013-08-24 04:18:00,52.2,48.4,30.21,East,82,0.0,0.0,87,0.00,CLR,OVC,0.00,WeatherDisplay:10.37,2013-08-24 08:18:00,
2013-08-24 04:23:00,52.1,48.3,30.21,East,82,0.0,0.0,87,0.00,CLR,OVC,0.00,WeatherDisplay:10.37,2013-08-24 08:23:00,
2013-08-24 04:28:00,52.1,48.0,30.21,East,83,0.0,0.0,86,0.00,CLR,OVC,0.00,WeatherDisplay:10.37,2013-08-24 08:28:00,
2013-08-24 04:33:00,51.9,48.2,30.21,East,82,0.0,0.0,87,0.00,CLR,OVC,0.00,WeatherDisplay:10.37,2013-08-24 08:33:00,
2013-08-24 04:38:00,51.8,48.1,30.21,East,81,0.0,0.0,87,0.00,CLR,OVC,0.00,WeatherDisplay:10.37,2013-08-24 08:38:00,
2013-08-24 04:43:00,51.6,47.9,30.22,East,81,0.0,0.0,87,0.00,CLR,OVC,0.00,WeatherDisplay:10.37,2013-08-24 08:43:00,
2013-08-24 04:48:00,51.5,47.8,30.22,East,82,0.0,0.0,87,0.00,CLR,OVC,0.00,WeatherDisplay:10.37,2013-08-24 08:48:00,
2013-08-24 04:53:00,51.6,47.5,30.22,East,83,0.0,0.0,86,0.00,CLR,OVC,0.00,WeatherDisplay:10.37,2013-08-24 08:53:00,
2013-08-24 04:58:00,51.4,47.4,30.22,East,82,0.0,0.0,86,0.00,CLR,OVC,0.00,WeatherDisplay:10.37,2013-08-24 08:58:00,
2013-08-24 05:03:00,51.3,47.3,30.23,East,82,0.0,0.0,86,0.00,CLR,OVC,0.00,WeatherDisplay:10.37,2013-08-24 09:03:00,
2013-08-24 05:08:00,51.4,47.4,30.23,East,82,0.0,0.0,86,0.00,CLR,OVC,0.00,WeatherDisplay:10.37,2013-08-24 09:08:00,
2013-08-24 05:13:00,51.1,46.7,30.23,East,82,0.0,0.0,85,0.00,CLR,OVC,0.00,WeatherDisplay:10.37,2013-08-24 09:13:00,
2013-08-24 05:18:00,51.0,46.3,30.23,East,81,0.0,0.0,84,0.00,CLR,OVC,0.00,WeatherDisplay:10.37,2013-08-24 09:18:00,
2013-08-24 05:23:00,51.0,46.0,30.23,East,81,0.0,0.0,83,0.00,CLR,OVC,0.00,WeatherDisplay:10.37,2013-08-24 09:23:00,
2013-08-24 05:28:00,50.7,45.7,30.23,East,81,0.0,0.0,83,0.00,CLR,OVC,0.00,WeatherDisplay:10.37,2013-08-24 09:28:00,
2013-08-24 05:33:00,50.4,45.7,30.23,East,82,0.0,0.0,84,0.00,CLR,OVC,0.00,WeatherDisplay:10.37,2013-08-24 09:33:00,
2013-08-24 05:38:00,50.6,45.6,30.24,East,82,0.0,0.0,83,0.00,CLR,OVC,0.00,WeatherDisplay:10.37,2013-08-24 09:38:00,
2013-08-24 05:43:00,50.4,45.7,30.24,East,82,0.0,0.0,84,0.00,CLR,OVC,0.00,WeatherDisplay:10.37,2013-08-24 09:43:00,
2013-08-24 05:48:00,50.5,45.8,30.24,East,82,0.0,0.0,84,0.00,CLR,OVC,0.00,WeatherDisplay:10.37,2013-08-24 09:48:00,
2013-08-24 05:53:00,50.2,45.6,30.25,East,82,0.0,0.0,84,0.00,CLR,OVC,0.00,WeatherDisplay:10.37,2013-08-24 09:53:00,
2013-08-24 05:58:00,50.2,45.9,30.25,East,82,0.0,0.0,85,0.00,CLR,OVC,0.00,WeatherDisplay:10.37,2013-08-24 09:58:00,
2013-08-24 06:03:00,49.9,45.3,30.25,East,81,0.0,0.0,84,0.00,CLR,OVC,0.00,WeatherDisplay:10.37,2013-08-24 10:03:00,
2013-08-24 06:08:00,50.0,45.4,30.26,East,82,0.0,0.0,84,0.00,CLR,OVC,0.00,WeatherDisplay:10.37,2013-08-24 10:08:00,
2013-08-24 06:13:00,49.9,45.3,30.26,East,82,0.0,0.0,84,0.00,CLR,OVC,0.00,WeatherDisplay:10.37,2013-08-24 10:13:00,
2013-08-24 06:18:00,50.0,45.4,30.26,East,82,0.0,0.0,84,0.00,CLR,OVC,0.00,WeatherDisplay:10.37,2013-08-24 10:18:00,
2013-08-24 06:23:00,50.0,45.4,30.26,East,83,0.0,0.0,84,0.00,CLR,OVC,0.00,WeatherDisplay:10.37,2013-08-24 10:23:00,
2013-08-24 06:28:00,50.1,45.8,30.27,East,82,0.0,0.0,85,0.00,CLR,OVC,0.00,WeatherDisplay:10.37,2013-08-24 10:28:00,
2013-08-24 06:33:00,50.0,45.7,30.26,East,82,0.0,0.0,85,0.00,CLR,OVC,0.00,WeatherDisplay:10.37,2013-08-24 10:33:00,
2013-08-24 06:38:00,49.9,45.3,30.27,East,82,0.0,0.0,84,0.00,CLR,OVC,0.00,WeatherDisplay:10.37,2013-08-24 10:38:00,
2013-08-24 06:43:00,49.9,45.3,30.26,East,81,0.0,0.0,84,0.00,CLR,OVC,0.00,WeatherDisplay:10.37,2013-08-24 10:43:00,
2013-08-24 06:48:00,50.2,45.6,30.27,East,81,0.0,0.0,84,0.00,CLR,OVC,0.00,WeatherDisplay:10.37,2013-08-24 10:48:00,
2013-08-24 06:53:00,49.8,45.5,30.26,East,81,0.0,0.0,85,0.00,CLR,OVC,0.00,WeatherDisplay:10.37,2013-08-24 10:53:00,
2013-08-24 06:58:00,50.0,45.4,30.28,East,81,0.0,0.0,84,0.00,CLR,OVC,0.00,WeatherDisplay:10.37,2013-08-24 10:58:00,
2013-08-24 07:03:00,50.2,45.6,30.28,East,81,0.0,0.0,84,0.00,CLR,OVC,0.00,WeatherDisplay:10.37,2013-08-24 11:03:00,
2013-08-24 07:08:00,50.2,45.6,30.28,East,81,0.0,0.0,84,0.00,CLR,OVC,0.00,WeatherDisplay:10.37,2013-08-24 11:08:00,
2013-08-24 07:13:00,50.3,45.6,30.28,East,82,0.0,0.0,84,0.00,CLR,OVC,0.00,WeatherDisplay:10.37,2013-08-24 11:13:00,
2013-08-24 07:18:00,50.6,45.9,30.28,East,82,0.0,0.0,84,0.00,CLR,OVC,0.00,WeatherDisplay:10.37,2013-08-24 11:18:00,
2013-08-24 07:23:00,51.5,46.8,30.28,East,82,0.0,0.0,84,0.00,CLR,OVC,0.00,WeatherDisplay:10.37,2013-08-24 11:23:00,
2013-08-24 07:28:00,51.3,46.6,30.28,East,82,0.0,0.0,84,0.00,CLR,OVC,0.00,WeatherDisplay:10.37,2013-08-24 11:28:00,
2013-08-24 07:33:00,52.0,47.3,30.28,East,82,0.0,0.0,84,0.00,CLR,OVC,0.00,WeatherDisplay:10.37,2013-08-24 11:33:00,
2013-08-24 07:38:00,52.7,48.0,30.28,East,82,0.0,0.0,84,0.00,CLR,OVC,0.00,WeatherDisplay:10.37,2013-08-24 11:38:00,
2013-08-24 07:43:00,53.5,48.5,30.28,East,82,0.0,0.0,83,0.00,CLR,OVC,0.00,WeatherDisplay:10.37,2013-08-24 11:43:00,
2013-08-24 07:48:00,54.0,48.6,30.28,East,82,0.2,1.2,82,0.00,CLR,OVC,0.00,WeatherDisplay:10.37,2013-08-24 11:48:00,
2013-08-24 07:53:00,54.8,49.4,30.29,East,81,0.0,0.0,82,0.00,CLR,OVC,0.00,WeatherDisplay:10.37,2013-08-24 11:53:00,
2013-08-24 07:58:00,55.6,49.9,30.29,East,81,0.0,0.0,81,0.00,CLR,OVC,0.00,WeatherDisplay:10.37,2013-08-24 11:58:00,
2013-08-24 08:03:00,56.2,50.1,30.29,NW,319,0.2,1.2,80,0.00,CLR,OVC,0.00,WeatherDisplay:10.37,2013-08-24 12:03:00,
2013-08-24 08:08:00,57.3,50.5,30.29,NNW,330,0.4,3.5,78,0.00,CLR,OVC,0.00,WeatherDisplay:10.37,2013-08-24 12:08:00,
2013-08-24 08:13:00,57.9,50.7,30.29,NNW,336,1.3,3.5,77,0.00,CLR,OVC,0.00,WeatherDisplay:10.37,2013-08-24 12:13:00,
2013-08-24 08:18:00,58.5,50.6,30.28,NNW,339,0.8,3.5,75,0.00,CLR,OVC,0.00,WeatherDisplay:10.37,2013-08-24 12:18:00,
2013-08-24 08:23:00,59.0,50.7,30.29,NNW,345,1.2,2.3,74,0.00,CLR,OVC,0.00,WeatherDisplay:10.37,2013-08-24 12:23:00,
2013-08-24 08:29:00,60.2,50.4,30.30,North,359,0.5,4.6,70,0.00,CLR,OVC,0.00,WeatherDisplay:10.37,2013-08-24 12:29:00,
2013-08-24 08:34:00,60.4,51.3,30.30,NNE,20,1.2,4.6,72,0.00,CLR,OVC,0.00,WeatherDisplay:10.37,2013-08-24 12:34:00,
2013-08-24 08:39:00,61.1,50.8,30.30,North,359,0.5,2.3,69,0.00,CLR,OVC,0.00,WeatherDisplay:10.37,2013-08-24 12:39:00,
2013-08-24 08:44:00,61.9,52.0,30.30,North,359,0.5,0.0,70,0.00,CLR,OVC,0.00,WeatherDisplay:10.37,2013-08-24 12:44:00,
2013-08-24 08:49:00,62.4,51.7,30.30,NNW,345,1.4,2.3,68,0.00,CLR,OVC,0.00,WeatherDisplay:10.37,2013-08-24 12:49:00,
2013-08-24 08:54:00,62.8,51.7,30.30,NNW,347,2.1,3.5,67,0.00,CLR,OVC,0.00,WeatherDisplay:10.37,2013-08-24 12:54:00,
2013-08-24 08:59:00,63.1,51.6,30.30,North,6,0.8,3.5,66,0.00,CLR,OVC,0.00,WeatherDisplay:10.37,2013-08-24 12:59:00,
2013-08-24 09:04:00,64.0,51.6,30.30,North,353,4.6,5.8,64,0.00,CLR,OVC,0.00,WeatherDisplay:10.37,2013-08-24 13:04:00,
2013-08-24 09:09:00,64.7,51.8,30.30,North,355,2.0,3.5,63,0.00,CLR,OVC,0.00,WeatherDisplay:10.37,2013-08-24 13:09:00,
2013-08-24 09:14:00,65.1,52.2,30.30,SE,128,1.4,3.5,63,0.00,CLR,OVC,0.00,WeatherDisplay:10.37,2013-08-24 13:14:00,
2013-08-24 09:19:00,65.6,51.8,30.31,ESE,121,1.6,3.5,61,0.00,CLR,OVC,0.00,WeatherDisplay:10.37,2013-08-24 13:19:00,
2013-08-24 09:24:00,66.1,50.9,30.30,ENE,60,0.8,2.3,58,0.00,CLR,OVC,0.00,WeatherDisplay:10.37,2013-08-24 13:24:00,
2013-08-24 09:29:00,66.4,51.6,30.31,ENE,59,0.7,2.3,59,0.00,CLR,OVC,0.00,WeatherDisplay:10.37,2013-08-24 13:29:00,
2013-08-24 09:34:00,66.9,52.1,30.31,ENE,59,0.5,2.3,59,0.00,CLR,OVC,0.00,WeatherDisplay:10.37,2013-08-24 13:34:00,
2013-08-24 09:39:00,66.9,50.7,30.30,NE,41,1.6,3.5,56,0.00,CLR,OVC,0.00,WeatherDisplay:10.37,2013-08-24 13:39:00,
2013-08-24 09:44:00,67.7,50.9,30.31,NNW,333,2.1,3.5,55,0.00,CLR,OVC,0.00,WeatherDisplay:10.37,2013-08-24 13:44:00,
2013-08-24 09:49:00,68.5,51.7,30.31,North,352,3.1,8.1,55,0.00,CLR,OVC,0.00,WeatherDisplay:10.37,2013-08-24 13:49:00,
2013-08-24 09:54:00,68.7,49.8,30.31,North,1,2.1,4.0,51,0.00,CLR,OVC,0.00,WeatherDisplay:10.37,2013-08-24 13:54:00,
2013-08-24 09:59:00,68.7,49.3,30.31,East,80,5.9,9.0,50,0.00,CLR,OVC,0.00,WeatherDisplay:10.37,2013-08-24 13:59:00,
2013-08-24 10:04:00,68.9,50.0,30.31,ENE,73,0.8,1.2,51,0.00,CLR,OVC,0.00,WeatherDisplay:10.37,2013-08-24 14:04:00,
2013-08-24 10:09:00,69.2,49.2,30.31,NNW,341,2.9,4.6,49,0.00,CLR,OVC,0.00,WeatherDisplay:10.37,2013-08-24 14:09:00,
2013-08-24 10:14:00,69.3,48.2,30.31,North,4,2.7,4.6,47,0.00,CLR,OVC,0.00,WeatherDisplay:10.37,2013-08-24 14:14:00,
2013-08-24 10:19:00,69.6,47.9,30.31,North,354,1.0,3.5,46,0.00,CLR,OVC,0.00,WeatherDisplay:10.37,2013-08-24 14:19:00,
2013-08-24 10:24:00,70.4,48.6,30.32,East,83,2.8,4.6,46,0.00,CLR,OVC,0.00,WeatherDisplay:10.37,2013-08-24 14:24:00,
2013-08-24 10:29:00,71.1,48.1,30.32,ENE,62,3.1,4.6,44,0.00,CLR,OVC,0.00,WeatherDisplay:10.37,2013-08-24 14:29:00,
2013-08-24 10:34:00,71.0,48.0,30.31,North,357,1.2,3.5,44,0.00,CLR,OVC,0.00,WeatherDisplay:10.37,2013-08-24 14:34:00,
2013-08-24 10:39:00,71.7,49.2,30.31,North,358,2.1,4.0,45,0.00,CLR,OVC,0.00,WeatherDisplay:10.37,2013-08-24 14:39:00,
2013-08-24 10:44:00,71.2,46.9,30.32,ENE,69,3.7,5.8,42,0.00,CLR,OVC,0.00,WeatherDisplay:10.37,2013-08-24 14:44:00,
2013-08-24 10:49:00,71.7,47.4,30.32,South,186,1.6,3.5,42,0.00,CLR,OVC,0.00,WeatherDisplay:10.37,2013-08-24 14:49:00,
2013-08-24 10:54:00,72.0,46.3,30.31,ESE,104,2.7,9.2,40,0.00,CLR,OVC,0.00,WeatherDisplay:10.37,2013-08-24 14:54:00,
2013-08-24 10:59:00,71.8,47.5,30.31,ESE,112,2.9,3.5,42,0.00,CLR,OVC,0.00,WeatherDisplay:10.37,2013-08-24 14:59:00,
2013-08-24 11:04:00,72.0,46.3,30.31,NE,36,1.2,6.9,40,0.00,CLR,OVC,0.00,WeatherDisplay:10.37,2013-08-24 15:04:00,
2013-08-24 11:09:00,72.3,46.6,30.31,ESE,103,2.1,5.8,40,0.00,CLR,OVC,0.00,WeatherDisplay:10.37,2013-08-24 15:09:00,
2013-08-24 11:14:00,72.8,45.7,30.31,North,0,3.1,4.6,38,0.00,CLR,OVC,0.00,WeatherDisplay:10.37,2013-08-24 15:14:00,
2013-08-24 11:19:00,73.3,47.5,30.32,SE,127,2.9,4.6,40,0.00,CLR,OVC,0.00,WeatherDisplay:10.37,2013-08-24 15:19:00,
2013-08-24 11:24:00,73.2,43.9,30.31,NNW,335,6.5,6.9,35,0.00,CLR,OVC,0.00,WeatherDisplay:10.37,2013-08-24 15:24:00,
2013-08-24 11:29:00,73.3,45.4,30.31,ENE,58,3.7,4.6,37,0.00,CLR,OVC,0.00,WeatherDisplay:10.37,2013-08-24 15:29:00,
2013-08-24 11:34:00,74.1,44.7,30.31,ENE,59,2.8,3.5,35,0.00,CLR,OVC,0.00,WeatherDisplay:10.37,2013-08-24 15:34:00,
2013-08-24 11:39:00,74.3,46.3,30.32,ENE,59,2.2,3.5,37,0.00,CLR,OVC,0.00,WeatherDisplay:10.37,2013-08-24 15:39:00,
2013-08-24 11:44:00,74.7,45.2,30.31,East,85,0.8,3.5,35,0.00,CLR,OVC,0.00,WeatherDisplay:10.37,2013-08-24 15:44:00,
2013-08-24 11:49:00,74.7,44.5,30.32,ESE,105,4.2,8.1,34,0.00,CLR,OVC,0.00,WeatherDisplay:10.37,2013-08-24 15:49:00,
2013-08-24 11:54:00,74.8,43.8,30.32,NNE,25,4.9,4.9,33,0.00,CLR,OVC,0.00,WeatherDisplay:10.37,2013-08-24 15:54:00,
2013-08-24 11:59:00,74.9,44.6,30.32,ENE,69,2.7,4.6,34,0.00,CLR,OVC,0.00,WeatherDisplay:10.37,2013-08-24 15:59:00,
2013-08-24 12:04:00,75.2,44.1,30.31,NNW,347,3.8,3.8,33,0.00,CLR,OVC,0.00,WeatherDisplay:10.37,2013-08-24 16:04:00,
2013-08-24 12:09:00,75.3,44.2,30.31,North,352,2.3,2.3,33,0.00,CLR,OVC,0.00,WeatherDisplay:10.37,2013-08-24 16:09:00,
2013-08-24 12:14:00,75.4,43.5,30.31,ESE,104,2.0,2.3,32,0.00,CLR,OVC,0.00,WeatherDisplay:10.37,2013-08-24 16:14:00,
2013-08-24 12:19:00,76.0,43.2,30.32,ESE,102,1.5,2.3,31,0.00,CLR,OVC,0.00,WeatherDisplay:10.37,2013-08-24 16:19:00,
2013-08-24 12:24:00,76.3,45.1,30.31,NNE,25,2.0,4.6,33,0.00,CLR,OVC,0.00,WeatherDisplay:10.37,2013-08-24 16:24:00,
2013-08-24 12:29:00,76.7,43.8,30.32,North,1,2.5,3.5,31,0.00,CLR,OVC,0.00,WeatherDisplay:10.37,2013-08-24 16:29:00,
2013-08-24 12:34:00,76.4,43.5,30.31,NNE,26,2.0,0.0,31,0.00,CLR,OVC,0.00,WeatherDisplay:10.37,2013-08-24 16:34:00,
2013-08-24 12:39:00,76.8,44.7,30.31,NE,55,3.0,0.0,32,0.00,CLR,OVC,0.00,WeatherDisplay:10.37,2013-08-24 16:39:00,
2013-08-24 12:44:00,77.1,44.9,30.31,ESE,103,2.0,0.0,32,0.00,CLR,OVC,0.00,WeatherDisplay:10.37,2013-08-24 16:44:00,
2013-08-24 12:49:00,77.2,45.0,30.31,ENE,65,2.0,0.0,32,0.00,CLR,OVC,0.00,WeatherDisplay:10.37,2013-08-24 16:49:00,
2013-08-24 12:54:00,76.8,42.1,30.31,North,349,7.4,10.4,29,0.00,CLR,OVC,0.00,WeatherDisplay:10.37,2013-08-24 16:54:00,
2013-08-24 12:59:00,77.0,45.7,30.31,NE,37,1.6,4.6,33,0.00,CLR,OVC,0.00,WeatherDisplay:10.37,2013-08-24 16:59:00,
2013-08-24 13:04:00,77.2,44.2,30.31,NE,38,1.0,0.0,31,0.00,CLR,OVC,0.00,WeatherDisplay:10.37,2013-08-24 17:04:00,
2013-08-24 13:09:00,77.0,43.2,30.31,NW,326,3.8,6.9,30,0.00,CLR,OVC,0.00,WeatherDisplay:10.37,2013-08-24 17:09:00,
2013-08-24 13:14:00,77.6,42.8,30.31,ESE,112,1.4,6.9,29,0.00,CLR,OVC,0.00,WeatherDisplay:10.37,2013-08-24 17:14:00,
2013-08-24 13:19:00,77.8,42.0,30.31,East,84,3.0,0.0,28,0.00,CLR,OVC,0.00,WeatherDisplay:10.37,2013-08-24 17:19:00,
2013-08-24 13:24:00,77.8,42.1,30.32,East,91,2.7,6.9,28,0.00,CLR,OVC,0.00,WeatherDisplay:10.37,2013-08-24 17:24:00,
2013-08-24 13:29:00,78.0,43.1,30.31,East,79,5.0,0.0,29,0.00,CLR,OVC,0.00,WeatherDisplay:10.37,2013-08-24 17:29:00,
2013-08-24 13:34:00,78.1,41.4,30.31,NNE,27,2.0,0.0,27,0.00,CLR,OVC,0.00,WeatherDisplay:10.37,2013-08-24 17:34:00,
2013-08-24 13:39:00,77.8,42.1,30.31,NE,39,1.4,3.5,28,0.00,CLR,OVC,0.00,WeatherDisplay:10.37,2013-08-24 17:39:00,
2013-08-24 13:44:00,78.3,41.6,30.31,NE,53,3.0,0.0,27,0.00,CLR,OVC,0.00,WeatherDisplay:10.37,2013-08-24 17:44:00,
2013-08-24 13:49:00,78.6,43.7,30.31,East,97,1.0,0.0,29,0.00,CLR,OVC,0.00,WeatherDisplay:10.37,2013-08-24 17:49:00,
2013-08-24 13:54:00,78.7,42.9,30.31,East,87,3.0,0.0,28,0.00,CLR,OVC,0.00,WeatherDisplay:10.37,2013-08-24 17:54:00,
2013-08-24 13:59:00,77.8,41.1,30.31,North,359,4.8,6.9,27,0.00,CLR,OVC,0.00,WeatherDisplay:10.37,2013-08-24 17:59:00,
2013-08-24 14:04:00,78.4,43.5,30.30,North,1,1.7,3.5,29,0.00,CLR,OVC,0.00,WeatherDisplay:10.37,2013-08-24 18:04:00,
2013-08-24 14:09:00,78.3,44.3,30.30,ESE,109,1.9,4.6,30,0.00,CLR,OVC,0.00,WeatherDisplay:10.37,2013-08-24 18:09:00,
2013-08-24 14:14:00,78.5,45.3,30.31,SE,131,1.0,0.0,31,0.00,CLR,OVC,0.00,WeatherDisplay:10.37,2013-08-24 18:14:00,
2013-08-24 14:19:00,79.1,43.2,30.31,WNW,282,3.8,6.0,28,0.00,CLR,OVC,0.00,WeatherDisplay:10.37,2013-08-24 18:19:00,
2013-08-24 14:24:00,78.2,42.4,30.30,North,354,2.5,3.5,28,0.00,CLR,OVC,0.00,WeatherDisplay:10.37,2013-08-24 18:24:00,
2013-08-24 14:29:00,78.3,41.5,30.30,NNE,32,3.0,0.0,27,0.00,CLR,OVC,0.00,WeatherDisplay:10.37,2013-08-24 18:29:00,
2013-08-24 14:34:00,78.4,43.5,30.30,North,7,2.0,4.0,29,0.00,CLR,OVC,0.00,WeatherDisplay:10.37,2013-08-24 18:34:00,
2013-08-24 14:39:00,78.4,41.6,30.29,North,359,1.0,0.0,27,0.00,CLR,OVC,0.00,WeatherDisplay:10.37,2013-08-24 18:39:00,
2013-08-24 14:44:00,78.8,43.8,30.29,NNW,342,1.0,0.0,29,0.00,CLR,OVC,0.00,WeatherDisplay:10.37,2013-08-24 18:44:00,
2013-08-24 14:49:00,79.3,45.2,30.29,NNW,332,1.0,4.6,30,0.00,CLR,OVC,0.00,WeatherDisplay:10.37,2013-08-24 18:49:00,
2013-08-24 14:54:00,79.3,46.9,30.30,ENE,57,1.5,1.5,32,0.00,CLR,OVC,0.00,WeatherDisplay:10.37,2013-08-24 18:54:00,
2013-08-24 14:59:00,79.3,45.2,30.29,ENE,73,1.0,0.0,30,0.00,CLR,OVC,0.00,WeatherDisplay:10.37,2013-08-24 18:59:00,
2013-08-24 15:04:00,79.2,42.3,30.30,East,99,2.5,3.5,27,0.00,CLR,OVC,0.00,WeatherDisplay:10.37,2013-08-24 19:04:00,
2013-08-24 15:09:00,78.8,46.4,30.29,SSE,149,2.8,2.8,32,0.00,CLR,OVC,0.00,WeatherDisplay:10.37,2013-08-24 19:09:00,
2013-08-24 15:14:00,79.1,45.9,30.30,SSE,153,0.0,0.0,31,0.00,CLR,OVC,0.00,WeatherDisplay:10.37,2013-08-24 19:14:00,
2013-08-24 15:19:00,79.4,47.8,30.29,South,170,2.2,3.5,33,0.00,CLR,OVC,0.00,WeatherDisplay:10.37,2013-08-24 19:19:00,
2013-08-24 15:24:00,79.6,45.4,30.30,South,173,0.0,0.0,30,0.00,CLR,OVC,0.00,WeatherDisplay:10.37,2013-08-24 19:24:00,
2013-08-24 15:29:00,79.5,44.5,30.29,ESE,110,1.9,4.6,29,0.00,CLR,OVC,0.00,WeatherDisplay:10.37,2013-08-24 19:29:00,
2013-08-24 15:34:00,78.9,43.0,30.30,ESE,110,0.7,3.5,28,0.00,CLR,OVC,0.00,WeatherDisplay:10.37,2013-08-24 19:34:00,
2013-08-24 15:39:00,78.7,46.4,30.29,ESE,116,2.0,0.0,32,0.00,CLR,OVC,0.00,WeatherDisplay:10.37,2013-08-24 19:39:00,
2013-08-24 15:44:00,78.7,45.5,30.29,SE,137,1.5,3.5,31,0.00,CLR,OVC,0.00,WeatherDisplay:10.37,2013-08-24 19:44:00,
2013-08-24 15:49:00,78.4,46.1,30.30,SE,137,1.0,4.6,32,0.00,CLR,OVC,0.00,WeatherDisplay:10.37,2013-08-24 19:49:00,
2013-08-24 15:54:00,78.5,47.8,30.30,SE,145,1.0,0.0,34,0.00,CLR,OVC,0.00,WeatherDisplay:10.37,2013-08-24 19:54:00,
2013-08-24 15:59:00,79.1,46.7,30.29,SSE,153,1.0,6.9,32,0.00,CLR,OVC,0.00,WeatherDisplay:10.37,2013-08-24 19:59:00,
2013-08-24 16:04:00,78.5,47.0,30.30,SSE,154,1.0,0.0,33,0.00,CLR,OVC,0.00,WeatherDisplay:10.37,2013-08-24 20:04:00,
2013-08-24 16:09:00,78.4,46.9,30.30,SE,139,2.5,5.8,33,0.00,CLR,OVC,0.00,WeatherDisplay:10.37,2013-08-24 20:09:00,
2013-08-24 16:14:00,78.0,48.9,30.29,SSW,200,2.2,5.8,36,0.00,CLR,OVC,0.00,WeatherDisplay:10.37,2013-08-24 20:14:00,
2013-08-24 16:19:00,78.5,48.6,30.30,SSW,200,1.0,0.0,35,0.00,CLR,OVC,0.00,WeatherDisplay:10.37,2013-08-24 20:19:00,
2013-08-24 16:24:00,78.4,48.5,30.29,SSW,200,2.0,0.0,35,0.00,CLR,OVC,0.00,WeatherDisplay:10.37,2013-08-24 20:24:00,
2013-08-24 16:29:00,77.8,47.9,30.29,SSW,199,1.1,3.5,35,0.00,CLR,OVC,0.00,WeatherDisplay:10.37,2013-08-24 20:29:00,
2013-08-24 16:34:00,78.2,49.0,30.29,SSW,200,1.0,0.0,36,0.00,CLR,OVC,0.00,WeatherDisplay:10.37,2013-08-24 20:34:00,
2013-08-24 16:39:00,78.0,49.7,30.28,SSW,200,3.0,0.0,37,0.00,CLR,OVC,0.00,WeatherDisplay:10.37,2013-08-24 20:39:00,
2013-08-24 16:44:00,77.6,47.8,30.29,SSW,194,1.9,3.5,35,0.00,CLR,OVC,0.00,WeatherDisplay:10.37,2013-08-24 20:44:00,
2013-08-24 16:49:00,77.0,47.2,30.29,SSW,196,1.4,2.3,35,0.00,CLR,OVC,0.00,WeatherDisplay:10.37,2013-08-24 20:49:00,
2013-08-24 16:54:00,76.1,47.2,30.28,SSW,196,0.5,2.3,36,0.00,CLR,OVC,0.00,WeatherDisplay:10.37,2013-08-24 20:54:00,
2013-08-24 16:59:00,76.0,47.1,30.30,SSE,150,1.8,3.5,36,0.00,CLR,OVC,0.00,WeatherDisplay:10.37,2013-08-24 20:59:00,
2013-08-24 17:04:00,75.5,46.7,30.29,SSE,150,2.6,3.5,36,0.00,CLR,OVC,0.00,WeatherDisplay:10.37,2013-08-24 21:04:00,
2013-08-24 17:09:00,75.0,46.2,30.29,SSE,149,2.2,3.5,36,0.00,CLR,OVC,0.00,WeatherDisplay:10.37,2013-08-24 21:09:00,
2013-08-24 17:14:00,74.8,45.3,30.29,SSE,153,2.6,4.6,35,0.00,CLR,OVC,0.00,WeatherDisplay:10.37,2013-08-24 21:14:00,
2013-08-24 17:19:00,74.6,44.4,30.29,SSE,149,2.8,4.6,34,0.00,CLR,OVC,0.00,WeatherDisplay:10.37,2013-08-24 21:19:00,
2013-08-24 17:24:00,74.2,44.8,30.29,ESE,115,3.9,4.6,35,0.00,CLR,OVC,0.00,WeatherDisplay:10.37,2013-08-24 21:24:00,
2013-08-24 17:29:00,73.1,42.3,30.29,ESE,116,1.3,3.5,33,0.00,CLR,OVC,0.00,WeatherDisplay:10.37,2013-08-24 21:29:00,
2013-08-24 17:34:00,72.9,43.6,30.29,ESE,116,0.0,1.2,35,0.00,CLR,OVC,0.00,WeatherDisplay:10.37,2013-08-24 21:34:00,
2013-08-24 17:39:00,72.6,44.8,30.29,ESE,116,0.6,1.2,37,0.00,CLR,OVC,0.00,WeatherDisplay:10.37,2013-08-24 21:39:00,
2013-08-24 17:44:00,72.4,43.9,30.28,ESE,116,0.9,2.3,36,0.00,CLR,OVC,0.00,WeatherDisplay:10.37,2013-08-24 21:44:00,
2013-08-24 17:49:00,72.2,43.0,30.28,ESE,116,0.5,2.3,35,0.00,CLR,OVC,0.00,WeatherDisplay:10.37,2013-08-24 21:49:00,
2013-08-24 17:54:00,72.2,45.9,30.29,ESE,117,0.7,1.2,39,0.00,CLR,OVC,0.00,WeatherDisplay:10.37,2013-08-24 21:54:00,
2013-08-24 17:59:00,72.3,44.6,30.29,ESE,117,0.9,2.3,37,0.00,CLR,OVC,0.00,WeatherDisplay:10.37,2013-08-24 21:59:00,
2013-08-24 18:05:00,71.9,45.6,30.28,ESE,116,0.2,1.2,39,0.00,CLR,OVC,0.00,WeatherDisplay:10.37,2013-08-24 22:05:00,
2013-08-24 18:10:00,71.7,47.4,30.30,ESE,115,0.3,2.0,42,0.00,CLR,OVC,0.00,WeatherDisplay:10.37,2013-08-24 22:10:00,
2013-08-24 18:15:00,71.6,44.6,30.30,ESE,117,0.3,1.2,38,0.00,CLR,OVC,0.00,WeatherDisplay:10.37,2013-08-24 22:15:00,
2013-08-24 18:20:00,71.3,47.6,30.29,ESE,117,0.9,2.3,43,0.00,CLR,OVC,0.00,WeatherDisplay:10.37,2013-08-24 22:20:00,
2013-08-24 18:25:00,71.5,46.6,30.28,SE,124,0.6,2.3,41,0.00,CLR,OVC,0.00,WeatherDisplay:10.37,2013-08-24 22:25:00,
2013-08-24 18:30:00,71.1,48.1,30.29,ESE,123,0.5,1.2,44,0.00,CLR,OVC,0.00,WeatherDisplay:10.37,2013-08-24 22:30:00,
2013-08-24 18:35:00,71.0,48.0,30.29,ESE,123,0.4,1.2,44,0.00,CLR,OVC,0.00,WeatherDisplay:10.37,2013-08-24 22:35:00,
2013-08-24 18:40:00,72.0,47.6,30.28,ESE,123,0.0,0.0,42,0.00,CLR,OVC,0.00,WeatherDisplay:10.37,2013-08-24 22:40:00,
2013-08-24 18:45:00,71.4,47.7,30.28,ESE,123,0.0,0.0,43,0.00,CLR,OVC,0.00,WeatherDisplay:10.37,2013-08-24 22:45:00,
2013-08-24 18:50:00,70.4,46.2,30.28,ESE,123,0.1,1.2,42,0.00,CLR,OVC,0.00,WeatherDisplay:10.37,2013-08-24 22:50:00,
2013-08-24 18:55:00,69.3,47.6,30.28,SE,125,0.5,1.2,46,0.00,CLR,OVC,0.00,WeatherDisplay:10.37,2013-08-24 22:55:00,
2013-08-24 19:00:00,68.6,48.1,30.29,SE,124,0.7,2.3,48,0.00,CLR,OVC,0.00,WeatherDisplay:10.37,2013-08-24 23:00:00,
2013-08-24 19:05:00,67.4,47.6,30.29,ESE,123,0.5,0.0,49,0.00,CLR,OVC,0.00,WeatherDisplay:10.37,2013-08-24 23:05:00,
2013-08-24 19:10:00,66.4,48.2,30.29,ESE,123,0.1,1.2,52,0.00,CLR,OVC,0.00,WeatherDisplay:10.37,2013-08-24 23:10:00,
2013-08-24 19:15:00,66.4,48.7,30.30,SE,124,0.2,1.2,53,0.00,CLR,OVC,0.00,WeatherDisplay:10.37,2013-08-24 23:15:00,
2013-08-24 19:20:00,65.6,47.5,30.31,ESE,123,0.2,1.2,52,0.00,CLR,OVC,0.00,WeatherDisplay:10.37,2013-08-24 23:20:00,
2013-08-24 19:25:00,64.7,47.7,30.30,SE,125,0.5,1.2,54,0.00,CLR,OVC,0.00,WeatherDisplay:10.37,2013-08-24 23:25:00,
2013-08-24 19:30:00,64.1,46.6,30.30,ESE,123,0.4,2.3,53,0.00,CLR,OVC,0.00,WeatherDisplay:10.37,2013-08-24 23:30:00,
2013-08-24 19:35:00,63.5,46.1,30.30,ESE,123,0.0,0.0,53,0.00,CLR,OVC,0.00,WeatherDisplay:10.37,2013-08-24 23:35:00,
2013-08-24 19:40:00,63.3,46.9,30.30,ESE,122,0.0,0.0,55,0.00,CLR,OVC,0.00,WeatherDisplay:10.37,2013-08-24 23:40:00,
2013-08-24 19:45:00,63.2,47.2,30.30,SE,124,0.0,0.0,56,0.00,CLR,OVC,0.00,WeatherDisplay:10.37,2013-08-24 23:45:00,
2013-08-24 19:50:00,62.8,46.4,30.30,ESE,122,0.0,0.0,55,0.00,CLR,OVC,0.00,WeatherDisplay:10.37,2013-08-24 23:50:00,
2013-08-24 19:55:00,62.2,45.3,30.30,SE,124,0.0,0.0,54,0.00,CLR,OVC,0.00,WeatherDisplay:10.37,2013-08-24 23:55:00,
2013-08-24 20:00:00,62.0,46.1,30.30,ESE,123,0.0,0.0,56,0.00,CLR,OVC,0.00,WeatherDisplay:10.37,2013-08-25 00:00:00,
2013-08-24 20:05:00,61.0,45.2,30.31,SE,124,0.0,0.0,56,0.00,CLR,OVC,0.00,WeatherDisplay:10.37,2013-08-25 00:05:00,
2013-08-24 20:10:00,61.0,45.2,30.31,SE,124,0.0,0.0,56,0.00,CLR,OVC,0.00,WeatherDisplay:10.37,2013-08-25 00:10:00,
2013-08-24 20:15:00,60.7,44.9,30.31,ESE,123,0.0,0.0,56,0.00,CLR,OVC,0.00,WeatherDisplay:10.37,2013-08-25 00:15:00,
2013-08-24 20:20:00,60.5,45.6,30.31,ESE,123,0.0,0.0,58,0.00,CLR,OVC,0.00,WeatherDisplay:10.37,2013-08-25 00:20:00,
2013-08-24 20:25:00,60.4,45.5,30.31,SE,124,0.0,0.0,58,0.00,CLR,OVC,0.00,WeatherDisplay:10.37,2013-08-25 00:25:00,
2013-08-24 20:30:00,59.4,44.6,30.31,ESE,123,0.0,0.0,58,0.00,CLR,OVC,0.00,WeatherDisplay:10.37,2013-08-25 00:30:00,
2013-08-24 20:35:00,59.7,45.8,30.32,ESE,123,0.0,0.0,60,0.00,CLR,OVC,0.00,WeatherDisplay:10.37,2013-08-25 00:35:00,
2013-08-24 20:40:00,59.3,45.4,30.32,ESE,123,0.0,0.0,60,0.00,CLR,OVC,0.00,WeatherDisplay:10.37,2013-08-25 00:40:00,
2013-08-24 20:45:00,59.0,46.0,30.32,SE,124,0.0,0.0,62,0.00,CLR,OVC,0.00,WeatherDisplay:10.37,2013-08-25 00:45:00,
2013-08-24 20:50:00,58.8,46.6,30.32,ESE,123,0.5,1.2,64,0.00,CLR,OVC,0.00,WeatherDisplay:10.37,2013-08-25 00:50:00,
2013-08-24 20:55:00,58.8,46.6,30.33,ESE,123,0.0,0.0,64,0.00,CLR,OVC,0.00,WeatherDisplay:10.37,2013-08-25 00:55:00,
2013-08-24 21:00:00,58.3,46.6,30.32,ESE,123,0.0,0.0,65,0.00,CLR,OVC,0.00,WeatherDisplay:10.37,2013-08-25 01:00:00,
2013-08-24 21:05:00,57.7,46.4,30.32,SE,124,0.0,0.0,66,0.00,CLR,OVC,0.00,WeatherDisplay:10.37,2013-08-25 01:05:00,
2013-08-24 21:10:00,58.0,47.1,30.33,ESE,123,0.0,0.0,67,0.00,CLR,OVC,0.00,WeatherDisplay:10.37,2013-08-25 01:10:00,
2013-08-24 21:15:00,57.8,46.9,30.33,ESE,123,0.0,0.0,67,0.00,CLR,OVC,0.00,WeatherDisplay:10.37,2013-08-25 01:15:00,
2013-08-24 21:20:00,57.6,46.7,30.33,ESE,123,0.0,0.0,67,0.00,CLR,OVC,0.00,WeatherDisplay:10.37,2013-08-25 01:20:00,
2013-08-24 21:25:00,57.4,46.9,30.33,ESE,122,0.0,0.0,68,0.00,CLR,OVC,0.00,WeatherDisplay:10.37,2013-08-25 01:25:00,
2013-08-24 21:30:00,56.8,46.7,30.33,SE,124,0.0,0.0,69,0.00,CLR,OVC,0.00,WeatherDisplay:10.37,2013-08-25 01:30:00,
2013-08-24 21:35:00,57.0,46.9,30.33,ESE,123,0.0,0.0,69,0.00,CLR,OVC,0.00,WeatherDisplay:10.37,2013-08-25 01:35:00,
2013-08-24 21:40:00,56.7,47.0,30.33,SE,124,0.0,0.0,70,0.00,CLR,OVC,0.00,WeatherDisplay:10.37,2013-08-25 01:40:00,
2013-08-24 21:45:00,55.9,46.3,30.32,SE,124,0.0,0.0,70,0.00,CLR,OVC,0.00,WeatherDisplay:10.37,2013-08-25 01:45:00,
2013-08-24 21:50:00,56.1,46.8,30.32,SE,124,0.0,0.0,71,0.00,CLR,OVC,0.00,WeatherDisplay:10.37,2013-08-25 01:50:00,
2013-08-24 21:55:00,56.1,46.8,30.32,ESE,123,0.0,0.0,71,0.00,CLR,OVC,0.00,WeatherDisplay:10.37,2013-08-25 01:55:00,
2013-08-24 22:00:00,55.8,46.9,30.33,ESE,123,0.0,0.0,72,0.00,CLR,OVC,0.00,WeatherDisplay:10.37,2013-08-25 02:00:00,
2013-08-24 22:05:00,55.5,46.6,30.33,ESE,123,0.0,0.0,72,0.00,CLR,OVC,0.00,WeatherDisplay:10.37,2013-08-25 02:05:00,
2013-08-24 22:10:00,55.5,46.6,30.33,SE,124,0.0,0.0,72,0.00,CLR,OVC,0.00,WeatherDisplay:10.37,2013-08-25 02:10:00,
2013-08-24 22:15:00,55.5,47.0,30.33,ESE,123,0.0,0.0,73,0.00,CLR,OVC,0.00,WeatherDisplay:10.37,2013-08-25 02:15:00,
2013-08-24 22:20:00,55.3,47.2,30.33,ESE,122,0.0,0.0,74,0.00,CLR,OVC,0.00,WeatherDisplay:10.37,2013-08-25 02:20:00,
2013-08-24 22:25:00,55.0,47.2,30.33,SE,124,0.0,0.0,75,0.00,CLR,OVC,0.00,WeatherDisplay:10.37,2013-08-25 02:25:00,
2013-08-24 22:30:00,55.0,47.2,30.33,ESE,123,0.0,0.0,75,0.00,CLR,OVC,0.00,WeatherDisplay:10.37,2013-08-25 02:30:00,
2013-08-24 22:35:00,54.6,46.8,30.33,ESE,122,0.0,0.0,75,0.00,CLR,OVC,0.00,WeatherDisplay:10.37,2013-08-25 02:35:00,
2013-08-24 22:40:00,54.9,47.5,30.33,SE,124,0.0,0.0,76,0.00,CLR,OVC,0.00,WeatherDisplay:10.37,2013-08-25 02:40:00,
2013-08-24 22:45:00,54.2,47.1,30.33,SE,124,0.0,0.0,77,0.00,CLR,OVC,0.00,WeatherDisplay:10.37,2013-08-25 02:45:00,
2013-08-24 22:50:00,54.6,47.9,30.33,SE,125,0.0,0.0,78,0.00,CLR,OVC,0.00,WeatherDisplay:10.37,2013-08-25 02:50:00,
2013-08-24 22:55:00,54.6,47.5,30.33,ESE,123,0.0,0.0,77,0.00,CLR,OVC,0.00,WeatherDisplay:10.37,2013-08-25 02:55:00,
2013-08-24 23:00:00,54.0,47.3,30.33,ESE,123,0.0,0.0,78,0.00,CLR,OVC,0.00,WeatherDisplay:10.37,2013-08-25 03:00:00,
2013-08-24 23:05:00,54.0,47.6,30.33,SE,124,0.0,0.0,79,0.00,CLR,OVC,0.00,WeatherDisplay:10.37,2013-08-25 03:05:00,
2013-08-24 23:10:00,53.9,47.5,30.33,ESE,123,0.0,0.0,79,0.00,CLR,OVC,0.00,WeatherDisplay:10.37,2013-08-25 03:10:00,
2013-08-24 23:15:00,53.3,47.0,30.33,ESE,123,0.0,0.0,79,0.00,CLR,OVC,0.00,WeatherDisplay:10.37,2013-08-25 03:15:00,
2013-08-24 23:20:00,53.9,47.5,30.33,ESE,123,0.0,0.0,79,0.00,CLR,OVC,0.00,WeatherDisplay:10.37,2013-08-25 03:20:00,
2013-08-24 23:25:00,53.6,47.6,30.33,ESE,122,0.0,0.0,80,0.00,CLR,OVC,0.00,WeatherDisplay:10.37,2013-08-25 03:25:00,
2013-08-24 23:31:00,53.5,47.1,30.34,ESE,123,0.0,0.0,79,0.00,CLR,OVC,0.00,WeatherDisplay:10.37,2013-08-25 03:31:00,
2013-08-24 23:36:00,53.2,46.9,30.34,ESE,123,0.0,0.0,79,0.00,CLR,OVC,0.00,WeatherDisplay:10.37,2013-08-25 03:36:00,
2013-08-24 23:41:00,53.3,47.0,30.34,ESE,123,0.0,0.0,79,0.00,CLR,OVC,0.00,WeatherDisplay:10.37,2013-08-25 03:41:00,
2013-08-24 23:46:00,53.4,47.4,30.33,ESE,123,0.0,0.0,80,0.00,CLR,OVC,0.00,WeatherDisplay:10.37,2013-08-25 03:46:00,
2013-08-24 23:51:00,52.9,47.2,30.34,ESE,122,0.0,0.0,81,0.00,CLR,OVC,0.00,WeatherDisplay:10.37,2013-08-25 03:51:00,
2013-08-24 23:56:00,53.0,47.3,30.33,ESE,122,0.0,0.0,81,0.00,CLR,OVC,0.00,WeatherDisplay:10.37,2013-08-25 03:56:00,